Time;durP1;ratioP1;P1;durP2;ratioP2;P2;SDS_P1;SDS_P2;PMS_P1;PMS_P2;Temp;Humidity;BMP_temperature;BMP_pressure;BME280_temperature;BME280_humidity;BME280_pressure;Samples;Min_cycle;Max_cycle;Signal;HPM_P1;HPM_P2
2023/07/30 00:01:04;;;;;;;10.57;7.25;;;19.60;99.90;;;;;;5119061;27;20505;-76
2023/07/30 00:03:31;;;;;;;9.75;7.30;;;19.70;99.90;;;;;;5119077;27;20585;-77
2023/07/30 00:05:58;;;;;;;11.07;7.97;;;19.80;99.90;;;;;;5120224;27;20063;-76
2023/07/30 00:08:25;;;;;;;11.90;7.22;;;19.80;99.90;;;;;;5122236;27;20059;-76
2023/07/30 00:10:53;;;;;;;9.30;7.38;;;19.70;99.90;;;;;;5119458;27;20071;-76
2023/07/30 00:13:21;;;;;;;9.98;7.30;;;19.60;99.90;;;;;;5128480;27;20054;-76
2023/07/30 00:15:48;;;;;;;9.70;7.57;;;19.60;99.90;;;;;;5134249;27;20043;-77
2023/07/30 00:18:16;;;;;;;10.32;7.05;;;19.60;99.90;;;;;;5124092;27;20494;-76
2023/07/30 00:20:43;;;;;;;8.90;7.20;;;19.60;99.90;;;;;;5120707;27;20043;-77
2023/07/30 00:23:11;;;;;;;11.82;7.57;;;19.60;99.90;;;;;;5120061;27;20047;-76
2023/07/30 00:25:38;;;;;;;9.68;7.05;;;19.50;99.90;;;;;;5118651;27;20103;-78
2023/07/30 00:28:05;;;;;;;10.02;7.32;;;19.40;99.90;;;;;;5120412;28;20163;-76
2023/07/30 00:30:34;;;;;;;11.57;7.90;;;19.40;99.90;;;;;;5118818;27;20035;-78
2023/07/30 00:33:01;;;;;;;10.13;7.80;;;19.40;99.90;;;;;;5098773;27;20108;-77
2023/07/30 00:35:29;;;;;;;10.50;7.70;;;19.40;99.90;;;;;;5117777;27;20101;-76
2023/07/30 00:37:56;;;;;;;10.98;7.72;;;19.40;99.90;;;;;;5099984;28;20047;-77
2023/07/30 00:40:24;;;;;;;10.77;8.10;;;19.40;99.90;;;;;;5099580;28;20078;-77
2023/07/30 00:42:52;;;;;;;20.60;15.35;;;19.40;99.90;;;;;;5118167;28;20054;-75
2023/07/30 00:45:19;;;;;;;13.15;8.02;;;19.30;99.90;;;;;;5118156;28;20039;-77
2023/07/30 00:47:48;;;;;;;9.70;7.47;;;19.30;99.90;;;;;;5118839;28;20051;-77
2023/07/30 00:50:17;;;;;;;12.45;9.13;;;19.30;99.90;;;;;;5098782;28;20130;-76
2023/07/30 00:52:45;;;;;;;18.67;14.15;;;19.20;99.90;;;;;;5100677;28;20024;-76
2023/07/30 00:55:14;;;;;;;14.32;9.00;;;19.20;99.90;;;;;;5117916;28;20039;-75
2023/07/30 00:57:42;;;;;;;9.80;7.45;;;19.20;99.90;;;;;;5115388;28;20052;-75
2023/07/30 01:00:11;;;;;;;10.90;8.20;;;19.20;99.90;;;;;;5131382;28;20131;-75
2023/07/30 01:02:39;;;;;;;10.15;8.25;;;19.10;99.90;;;;;;5107516;28;20123;-78
2023/07/30 01:05:08;;;;;;;10.43;8.32;;;19.20;99.90;;;;;;5109475;28;20043;-76
2023/07/30 01:07:35;;;;;;;15.77;10.45;;;19.10;99.90;;;;;;5117687;28;20061;-77
2023/07/30 01:10:03;;;;;;;12.55;8.45;;;19.10;99.90;;;;;;5113139;28;20048;-76
2023/07/30 01:12:32;;;;;;;12.60;8.32;;;19.10;99.90;;;;;;5139486;28;20035;-76
2023/07/30 01:15:00;;;;;;;11.10;8.98;;;19.10;99.90;;;;;;5116865;28;20118;-75
2023/07/30 01:17:28;;;;;;;12.95;8.50;;;19.10;99.90;;;;;;5099710;28;20051;-77
2023/07/30 01:19:56;;;;;;;10.88;7.90;;;19.00;99.90;;;;;;5099787;28;20046;-77
2023/07/30 01:22:24;;;;;;;11.43;8.10;;;19.00;99.90;;;;;;5103677;28;20074;-77
2023/07/30 01:24:58;;;;;;;15.05;8.63;;;19.10;99.90;;;;;;5101815;28;20054;-76
2023/07/30 01:27:29;;;;;;;11.18;7.93;;;19.00;99.90;;;;;;5113870;27;20494;-78
2023/07/30 01:30:05;;;;;;;12.02;8.25;;;19.00;99.90;;;;;;5111984;28;20119;-77
2023/07/30 01:32:33;;;;;;;11.23;8.13;;;19.00;99.90;;;;;;5113912;27;20044;-78
2023/07/30 01:35:03;;;;;;;11.82;8.55;;;18.90;99.90;;;;;;5112331;27;20117;-76
2023/07/30 01:37:33;;;;;;;10.57;8.77;;;18.80;99.90;;;;;;5100667;27;20036;-76
2023/07/30 01:40:02;;;;;;;10.57;8.23;;;18.90;99.90;;;;;;5101641;27;20039;-76
2023/07/30 01:42:30;;;;;;;11.20;8.43;;;18.90;99.90;;;;;;5112007;27;20391;-79
2023/07/30 01:44:57;;;;;;;11.07;8.13;;;18.80;99.90;;;;;;5103860;28;20093;-76
2023/07/30 01:47:25;;;;;;;11.82;8.40;;;18.90;99.90;;;;;;5101335;28;20035;-76
2023/07/30 01:49:52;;;;;;;10.20;7.53;;;19.00;99.90;;;;;;5111114;28;20487;-77
2023/07/30 01:52:19;;;;;;;9.93;7.63;;;18.90;99.90;;;;;;5125238;27;20045;-77
2023/07/30 01:54:48;;;;;;;13.45;8.50;;;18.90;99.90;;;;;;5129867;27;20065;-75
2023/07/30 01:57:15;;;;;;;11.35;7.90;;;18.90;99.90;;;;;;5128598;27;20039;-76
2023/07/30 01:59:42;;;;;;;13.85;8.30;;;18.90;99.90;;;;;;5120868;28;20047;-76
2023/07/30 02:02:10;;;;;;;13.02;8.73;;;18.80;99.90;;;;;;5116640;27;20036;-78
2023/07/30 02:04:37;;;;;;;9.95;8.27;;;18.80;99.90;;;;;;5118948;28;20044;-75
2023/07/30 02:07:05;;;;;;;10.75;8.30;;;18.80;99.90;;;;;;5115479;28;20074;-77
2023/07/30 02:09:32;;;;;;;9.93;8.20;;;18.80;99.90;;;;;;5112294;28;20128;-78
2023/07/30 02:12:03;;;;;;;12.18;8.07;;;18.80;99.90;;;;;;5102354;28;20040;-77
2023/07/30 02:14:31;;;;;;;10.57;7.53;;;18.70;99.90;;;;;;5102155;27;20126;-79
2023/07/30 02:17:03;;;;;;;11.32;7.70;;;18.70;99.90;;;;;;5104788;28;20063;-77
2023/07/30 02:19:30;;;;;;;10.05;8.07;;;18.60;99.90;;;;;;5125851;27;20085;-77
2023/07/30 02:21:57;;;;;;;9.95;7.43;;;18.60;99.90;;;;;;5131897;27;20047;-78
2023/07/30 02:24:25;;;;;;;11.23;8.15;;;18.60;99.90;;;;;;5113605;27;20039;-79
2023/07/30 02:26:52;;;;;;;9.75;8.43;;;18.60;99.90;;;;;;5112535;27;20045;-75
2023/07/30 02:29:21;;;;;;;9.48;7.85;;;18.60;99.90;;;;;;5112831;27;20039;-77
2023/07/30 02:31:48;;;;;;;9.27;8.20;;;18.60;99.90;;;;;;5128929;27;20039;-76
2023/07/30 02:34:15;;;;;;;11.85;8.73;;;18.60;99.90;;;;;;5132315;27;20027;-79
2023/07/30 02:36:45;;;;;;;13.85;9.27;;;18.60;99.90;;;;;;5130326;27;20043;-77
2023/07/30 02:39:12;;;;;;;10.07;8.55;;;18.60;99.90;;;;;;5131841;27;20046;-76
2023/07/30 02:41:39;;;;;;;12.98;9.30;;;18.60;99.90;;;;;;5131074;27;20047;-76
2023/07/30 02:44:06;;;;;;;11.27;8.70;;;18.50;99.90;;;;;;5112727;27;20039;-77
2023/07/30 02:46:35;;;;;;;14.27;8.77;;;18.30;99.90;;;;;;5131370;27;20043;-76
2023/07/30 02:49:02;;;;;;;11.70;8.27;;;18.30;99.90;;;;;;5130598;27;20252;-77
2023/07/30 02:51:30;;;;;;;11.43;8.45;;;18.40;99.90;;;;;;5112525;27;20043;-77
2023/07/30 02:53:59;;;;;;;11.02;7.50;;;18.40;99.90;;;;;;5131284;27;20039;-76
2023/07/30 02:56:27;;;;;;;10.10;8.18;;;18.40;99.90;;;;;;5130088;27;20441;-76
2023/07/30 02:58:54;;;;;;;9.48;7.80;;;18.40;99.90;;;;;;5111927;27;20100;-76
2023/07/30 03:01:22;;;;;;;12.05;8.02;;;18.40;99.90;;;;;;5111941;27;20047;-78
2023/07/30 03:03:51;;;;;;;9.93;8.23;;;18.40;99.90;;;;;;5110408;27;20055;-75
2023/07/30 03:06:18;;;;;;;14.43;8.27;;;18.40;99.90;;;;;;5113131;27;20450;-75
2023/07/30 03:08:45;;;;;;;10.35;8.30;;;18.30;99.90;;;;;;5138738;27;20040;-76
2023/07/30 03:11:13;;;;;;;12.10;8.50;;;18.30;99.90;;;;;;5124454;27;20109;-77
2023/07/30 03:13:40;;;;;;;11.00;8.52;;;18.20;99.90;;;;;;5143049;27;20039;-76
2023/07/30 03:16:08;;;;;;;16.38;8.57;;;18.30;99.90;;;;;;5143393;27;20567;-76
2023/07/30 03:18:35;;;;;;;10.60;8.85;;;18.20;99.90;;;;;;5119513;27;20048;-77
2023/07/30 03:21:04;;;;;;;13.63;10.75;;;18.20;99.90;;;;;;5105170;28;20051;-76
2023/07/30 03:23:32;;;;;;;10.95;9.80;;;18.20;99.90;;;;;;5097821;27;20036;-74
2023/07/30 03:26:01;;;;;;;10.27;8.75;;;18.20;99.90;;;;;;5100693;28;20491;-76
2023/07/30 03:28:28;;;;;;;14.20;9.30;;;18.20;99.90;;;;;;5100529;28;20084;-78
2023/07/30 03:30:55;;;;;;;13.10;8.65;;;18.20;99.90;;;;;;5110182;28;20040;-78
2023/07/30 03:33:23;;;;;;;11.30;8.27;;;18.20;99.90;;;;;;5110296;28;20032;-77
2023/07/30 03:35:51;;;;;;;12.70;8.63;;;18.10;99.90;;;;;;5120801;28;20065;-75
2023/07/30 03:38:20;;;;;;;10.20;8.18;;;18.10;99.90;;;;;;5129899;27;20039;-78
2023/07/30 03:40:47;;;;;;;10.00;8.45;;;18.10;99.90;;;;;;5105912;28;20054;-75
2023/07/30 03:43:15;;;;;;;10.85;8.48;;;18.10;99.90;;;;;;5118314;28;20525;-75
2023/07/30 03:45:42;;;;;;;11.70;8.55;;;18.10;99.90;;;;;;5124856;28;20445;-77
2023/07/30 03:48:10;;;;;;;10.50;7.93;;;18.20;99.90;;;;;;5113042;28;20044;-77
2023/07/30 03:50:38;;;;;;;10.63;8.32;;;18.30;99.90;;;;;;5110543;28;20044;-77
2023/07/30 03:53:06;;;;;;;11.80;9.05;;;18.30;99.90;;;;;;5111815;28;20040;-78
2023/07/30 03:55:35;;;;;;;14.05;8.88;;;18.40;99.90;;;;;;5116748;28;20074;-75
2023/07/30 03:58:03;;;;;;;9.82;8.27;;;18.50;99.90;;;;;;5113850;28;20043;-74
2023/07/30 04:00:30;;;;;;;10.80;8.23;;;18.50;99.90;;;;;;5107323;28;20039;-76
2023/07/30 04:02:57;;;;;;;10.48;8.02;;;18.70;99.90;;;;;;5117202;28;20043;-77
2023/07/30 04:05:25;;;;;;;9.52;7.72;;;18.90;99.90;;;;;;5117385;28;20054;-75
2023/07/30 04:07:52;;;;;;;8.77;7.45;;;19.40;99.90;;;;;;5124439;27;20094;-75
2023/07/30 04:10:20;;;;;;;9.30;7.18;;;19.90;99.90;;;;;;5117057;28;20109;-78
2023/07/30 04:12:49;;;;;;;11.45;6.80;;;20.30;99.90;;;;;;5113370;28;20050;-76
2023/07/30 04:15:16;;;;;;;9.80;6.60;;;20.60;99.90;;;;;;5111533;28;20458;-78
2023/07/30 04:17:44;;;;;;;8.70;6.85;;;21.10;99.90;;;;;;5099785;27;20495;-76
2023/07/30 04:20:11;;;;;;;8.02;6.43;;;21.30;99.90;;;;;;5133885;27;20035;-76
2023/07/30 04:22:41;;;;;;;9.52;6.55;;;21.60;99.90;;;;;;5133134;27;20046;-76
2023/07/30 04:25:10;;;;;;;8.73;6.38;;;21.50;99.90;;;;;;5116419;27;20117;-77
2023/07/30 04:27:38;;;;;;;11.43;6.72;;;21.30;99.90;;;;;;5115744;27;20452;-79
2023/07/30 04:30:08;;;;;;;8.98;6.65;;;21.00;99.90;;;;;;5135692;27;20044;-75
2023/07/30 04:32:35;;;;;;;9.65;6.57;;;20.80;99.90;;;;;;5134463;27;20126;-75
2023/07/30 04:35:03;;;;;;;9.68;7.13;;;20.80;99.90;;;;;;5129272;27;20051;-75
2023/07/30 04:37:30;;;;;;;9.40;6.78;;;21.20;99.90;;;;;;5132370;27;20074;-76
2023/07/30 04:39:58;;;;;;;9.32;6.70;;;21.80;99.90;;;;;;5128619;27;20093;-76
2023/07/30 04:42:27;;;;;;;8.95;6.13;;;22.40;99.90;;;;;;5111369;27;20040;-75
2023/07/30 04:44:54;;;;;;;10.90;5.88;;;22.80;99.90;;;;;;5110193;28;20398;-76
2023/07/30 04:47:23;;;;;;;12.02;8.60;;;23.10;99.90;;;;;;5110920;28;20119;-78
2023/07/30 04:49:51;;;;;;;7.53;6.30;;;23.30;99.90;;;;;;5109608;28;20203;-75
2023/07/30 04:52:20;;;;;;;9.63;6.00;;;23.50;99.90;;;;;;5111378;28;20059;-76
2023/07/30 04:54:47;;;;;;;10.82;6.45;;;23.80;99.90;;;;;;5127891;27;20130;-77
2023/07/30 04:57:15;;;;;;;9.77;6.22;;;23.90;99.90;;;;;;5130012;27;20039;-77
2023/07/30 04:59:42;;;;;;;8.77;6.63;;;23.80;99.90;;;;;;5131838;27;20058;-75
2023/07/30 05:02:10;;;;;;;9.40;5.70;;;23.50;99.90;;;;;;5133828;27;20053;-77
2023/07/30 05:04:39;;;;;;;10.38;6.43;;;23.20;99.90;;;;;;5134851;27;20490;-78
2023/07/30 05:07:06;;;;;;;9.05;6.25;;;23.00;99.90;;;;;;5140169;27;20049;-75
2023/07/30 05:09:34;;;;;;;9.13;6.00;;;22.90;99.90;;;;;;5159281;27;20043;-76
2023/07/30 05:12:01;;;;;;;11.45;6.70;;;22.80;99.90;;;;;;5153718;27;20050;-75
2023/07/30 05:14:28;;;;;;;9.50;6.30;;;22.60;99.90;;;;;;5143293;27;20100;-75
2023/07/30 05:16:56;;;;;;;8.88;6.80;;;22.80;99.90;;;;;;5118249;27;20051;-75
2023/07/30 05:19:23;;;;;;;9.68;6.63;;;23.10;99.90;;;;;;5121755;27;20038;-77
2023/07/30 05:21:52;;;;;;;12.82;6.50;;;23.60;99.90;;;;;;5112678;27;20032;-76
2023/07/30 05:24:19;;;;;;;8.13;6.03;;;24.20;99.90;;;;;;5119074;27;20039;-76
2023/07/30 05:26:46;;;;;;;9.55;6.35;;;25.00;99.90;;;;;;5111937;28;20405;-75
2023/07/30 05:29:14;;;;;;;9.40;6.40;;;25.70;99.90;;;;;;5113590;27;20057;-77
2023/07/30 05:31:41;;;;;;;8.25;6.80;;;26.20;99.90;;;;;;5126796;28;20252;-77
2023/07/30 05:34:08;;;;;;;9.25;6.68;;;26.60;99.90;;;;;;5130252;28;20078;-74
2023/07/30 05:36:36;;;;;;;13.00;7.30;;;26.70;99.90;;;;;;5113552;28;20130;-75
2023/07/30 05:39:05;;;;;;;8.95;6.05;;;27.10;99.90;;;;;;5093312;28;20059;-78
2023/07/30 05:41:32;;;;;;;10.98;6.68;;;26.90;99.90;;;;;;5112078;28;20406;-78
2023/07/30 05:43:59;;;;;;;9.20;8.10;;;27.10;99.90;;;;;;5111419;28;20617;-77
2023/07/30 05:46:26;;;;;;;9.85;7.30;;;27.40;99.90;;;;;;5111654;28;20390;-74
2023/07/30 05:48:54;;;;;;;8.80;6.05;;;27.60;99.90;;;;;;5112079;28;20038;-75
2023/07/30 05:51:21;;;;;;;8.00;6.00;;;27.70;99.90;;;;;;5111497;27;20359;-77
2023/07/30 05:53:48;;;;;;;9.48;7.30;;;27.60;99.90;;;;;;5111861;27;20475;-76
2023/07/30 05:56:18;;;;;;;8.63;6.50;;;27.40;99.90;;;;;;5111317;27;20059;-76
2023/07/30 05:58:46;;;;;;;9.43;6.05;;;27.20;99.90;;;;;;5110743;28;20140;-77
2023/07/30 06:01:13;;;;;;;10.68;6.88;;;27.10;99.90;;;;;;5110429;28;20092;-76
2023/07/30 06:03:40;;;;;;;8.80;6.07;;;27.00;99.90;;;;;;5114622;28;20039;-77
2023/07/30 06:06:08;;;;;;;8.88;6.03;;;27.10;99.90;;;;;;5095879;28;20035;-75
2023/07/30 06:08:35;;;;;;;9.23;5.95;;;27.20;99.90;;;;;;5094263;28;20051;-77
2023/07/30 06:11:04;;;;;;;11.48;7.10;;;27.20;99.90;;;;;;5111658;28;20035;-75
2023/07/30 06:13:32;;;;;;;9.27;6.88;;;27.20;99.90;;;;;;5100842;28;20649;-76
2023/07/30 06:16:00;;;;;;;14.18;7.63;;;26.80;99.90;;;;;;5124068;28;20132;-73
2023/07/30 06:18:27;;;;;;;10.88;7.35;;;26.80;99.90;;;;;;5122787;27;20054;-78
2023/07/30 06:20:55;;;;;;;11.00;7.22;;;26.90;99.90;;;;;;5135620;27;20040;-76
2023/07/30 06:23:22;;;;;;;9.55;7.07;;;27.10;99.90;;;;;;5125831;27;20040;-77
2023/07/30 06:25:49;;;;;;;9.48;7.07;;;27.30;99.90;;;;;;5122366;27;20055;-76
2023/07/30 06:28:17;;;;;;;9.20;6.85;;;27.60;99.90;;;;;;5103567;27;20039;-74
2023/07/30 06:30:45;;;;;;;9.35;6.32;;;27.80;99.90;;;;;;5124050;27;20080;-77
2023/07/30 06:33:13;;;;;;;11.10;8.10;;;27.60;99.90;;;;;;5122937;27;20054;-76
2023/07/30 06:35:40;;;;;;;17.38;13.07;;;27.60;99.90;;;;;;5120990;27;20057;-75
2023/07/30 06:38:09;;;;;;;8.45;6.80;;;27.90;99.90;;;;;;5116796;27;20122;-76
2023/07/30 06:40:37;;;;;;;10.45;7.60;;;27.90;99.90;;;;;;5123407;27;20039;-75
2023/07/30 06:43:04;;;;;;;14.68;9.02;;;27.90;99.90;;;;;;5122978;27;21817;-77
2023/07/30 06:45:31;;;;;;;11.40;7.30;;;28.20;99.90;;;;;;5106296;27;20046;-76
2023/07/30 06:48:00;;;;;;;10.45;6.50;;;28.30;99.90;;;;;;5122348;27;20047;-76
2023/07/30 06:50:27;;;;;;;13.98;8.80;;;28.70;99.90;;;;;;5117645;27;20042;-76
2023/07/30 06:52:55;;;;;;;10.55;7.20;;;28.90;99.90;;;;;;5120929;27;20069;-75
2023/07/30 06:55:23;;;;;;;10.23;6.82;;;29.00;99.90;;;;;;5122536;27;20043;-78
2023/07/30 06:57:50;;;;;;;11.10;6.47;;;29.20;99.90;;;;;;5117100;27;20096;-75
2023/07/30 07:00:21;;;;;;;11.45;7.30;;;29.40;99.90;;;;;;5118310;27;20047;-76
2023/07/30 07:02:48;;;;;;;11.02;7.50;;;29.50;99.90;;;;;;5120493;27;20050;-76
2023/07/30 07:05:17;;;;;;;10.18;8.30;;;29.40;99.90;;;;;;5119580;27;20262;-76
2023/07/30 07:07:44;;;;;;;11.50;7.25;;;29.40;99.90;;;;;;5121179;27;20081;-74
2023/07/30 07:10:12;;;;;;;8.32;6.90;;;29.20;99.90;;;;;;5118914;27;20043;-75
2023/07/30 07:12:40;;;;;;;8.00;6.65;;;29.00;99.90;;;;;;5126845;27;20129;-77
2023/07/30 07:15:08;;;;;;;12.18;8.98;;;28.90;99.90;;;;;;5123464;27;20062;-76
2023/07/30 07:17:48;;;;;;;10.20;7.78;;;29.00;99.90;;;;;;5118552;27;20050;-81
2023/07/30 07:20:20;;;;;;;9.77;7.03;;;29.00;99.90;;;;;;5139049;27;20043;-80
2023/07/30 07:22:48;;;;;;;12.88;8.15;;;29.00;99.90;;;;;;5096100;27;20031;-77
2023/07/30 07:25:18;;;;;;;12.40;8.65;;;29.00;99.90;;;;;;5131848;27;20549;-75
2023/07/30 07:27:46;;;;;;;9.60;7.43;;;29.10;99.90;;;;;;5130144;27;20046;-77
2023/07/30 07:30:13;;;;;;;11.73;7.57;;;29.10;99.90;;;;;;5113217;27;20099;-75
2023/07/30 07:32:40;;;;;;;13.00;8.40;;;29.20;99.90;;;;;;5132908;27;20043;-77
2023/07/30 07:35:09;;;;;;;12.70;8.85;;;29.40;99.90;;;;;;5131848;27;20036;-75
2023/07/30 07:37:39;;;;;;;12.40;8.30;;;29.50;99.90;;;;;;5132819;27;20115;-76
2023/07/30 07:40:09;;;;;;;13.63;9.35;;;29.60;99.90;;;;;;5133459;27;20058;-77
2023/07/30 07:42:36;;;;;;;12.05;8.50;;;29.70;99.90;;;;;;5131764;27;20059;-75
2023/07/30 07:45:04;;;;;;;11.88;8.32;;;29.70;99.90;;;;;;5129957;27;20445;-77
2023/07/30 07:47:31;;;;;;;11.30;7.20;;;29.70;99.90;;;;;;5130642;27;20551;-74
2023/07/30 07:49:59;;;;;;;9.80;6.88;;;29.80;99.90;;;;;;5130100;27;20077;-77
2023/07/30 07:52:26;;;;;;;11.77;8.55;;;29.80;99.90;;;;;;5132308;27;20130;-76
2023/07/30 07:54:55;;;;;;;10.85;7.93;;;29.90;99.90;;;;;;5131799;27;20075;-78
2023/07/30 07:57:23;;;;;;;16.17;9.27;;;30.00;99.90;;;;;;5132150;27;20041;-75
2023/07/30 07:59:50;;;;;;;10.80;8.10;;;30.10;99.90;;;;;;5084877;27;20047;-76
2023/07/30 08:02:18;;;;;;;12.98;8.20;;;30.10;99.90;;;;;;5132454;27;20039;-78
2023/07/30 08:04:46;;;;;;;10.73;7.78;;;30.10;99.90;;;;;;5115472;27;20118;-79
2023/07/30 08:07:14;;;;;;;10.55;7.70;;;30.40;99.90;;;;;;5135517;27;20031;-76
2023/07/30 08:09:43;;;;;;;12.00;8.10;;;30.80;99.90;;;;;;5134015;27;20035;-75
2023/07/30 08:12:12;;;;;;;11.85;8.20;;;31.20;99.90;;;;;;5131944;27;20039;-78
2023/07/30 08:14:39;;;;;;;9.95;7.70;;;31.80;99.90;;;;;;5131705;27;20031;-78
2023/07/30 08:17:08;;;;;;;94.47;83.95;;;32.30;99.90;;;;;;5132297;27;20051;-75
2023/07/30 08:19:35;;;;;;;19.17;14.65;;;32.30;99.90;;;;;;5134322;27;20087;-75
2023/07/30 08:22:03;;;;;;;13.23;9.20;;;32.50;99.90;;;;;;5143556;27;20088;-75
2023/07/30 08:24:30;;;;;;;16.67;13.88;;;32.70;99.90;;;;;;5155661;27;20048;-75
2023/07/30 08:27:00;;;;;;;11.20;7.70;;;33.30;99.90;;;;;;5150608;27;20053;-77
2023/07/30 08:29:29;;;;;;;11.38;9.07;;;33.70;99.90;;;;;;5147084;27;20053;-77
2023/07/30 08:31:56;;;;;;;13.75;9.98;;;33.90;99.90;;;;;;5133477;27;20108;-76
2023/07/30 08:34:24;;;;;;;12.50;9.73;;;34.00;99.90;;;;;;5133219;27;20490;-77
2023/07/30 08:36:52;;;;;;;10.73;8.02;;;33.90;99.90;;;;;;5133385;27;20080;-75
2023/07/30 08:39:19;;;;;;;11.82;9.30;;;33.70;99.90;;;;;;5130181;27;20041;-76
2023/07/30 08:41:47;;;;;;;11.80;9.25;;;33.60;99.90;;;;;;5130468;27;20050;-77
2023/07/30 08:44:14;;;;;;;12.38;9.98;;;33.90;99.90;;;;;;5129519;28;20047;-77
2023/07/30 08:46:43;;;;;;;10.20;7.57;;;34.10;99.90;;;;;;5129575;28;20122;-75
2023/07/30 08:49:11;;;;;;;11.50;8.32;;;34.30;99.90;;;;;;5129950;27;20071;-74
2023/07/30 08:51:44;;;;;;;10.23;8.35;;;34.50;99.90;;;;;;5147895;28;20051;-75
2023/07/30 08:54:12;;;;;;;10.57;7.68;;;34.50;99.90;;;;;;5145022;27;20043;-78
2023/07/30 08:56:40;;;;;;;9.48;8.48;;;34.10;99.90;;;;;;5143791;27;20039;-76
2023/07/30 08:59:10;;;;;;;8.90;7.60;;;33.70;99.90;;;;;;5151328;28;20077;-77
2023/07/30 09:01:40;;;;;;;10.70;7.93;;;33.90;99.90;;;;;;5136757;28;20055;-77
2023/07/30 09:04:09;;;;;;;10.93;9.27;;;33.90;99.90;;;;;;5144326;28;20103;-78
2023/07/30 09:06:38;;;;;;;12.10;8.00;;;34.00;99.90;;;;;;5151414;28;20035;-77
2023/07/30 09:09:06;;;;;;;13.30;10.35;;;33.60;99.90;;;;;;5142160;28;20062;-77
2023/07/30 09:11:33;;;;;;;11.68;7.68;;;33.20;99.90;;;;;;5130605;28;20092;-77
2023/07/30 09:14:03;;;;;;;11.63;7.90;;;32.80;99.90;;;;;;5134040;27;20111;-78
2023/07/30 09:16:30;;;;;;;10.55;8.15;;;32.60;99.90;;;;;;5129512;27;20067;-75
2023/07/30 09:18:59;;;;;;;10.40;7.47;;;33.00;99.90;;;;;;5103035;28;20051;-79
2023/07/30 09:21:35;;;;;;;9.35;7.63;;;33.10;99.90;;;;;;5109659;28;20098;-79
2023/07/30 09:24:06;;;;;;;9.23;7.95;;;32.50;99.90;;;;;;5107914;28;20047;-76
2023/07/30 09:26:44;;;;;;;12.07;7.78;;;32.40;99.90;;;;;;5098493;22;20041;-76
2023/07/30 09:29:12;;;;;;;9.20;7.57;;;32.00;99.90;;;;;;5079030;28;20049;-74
2023/07/30 09:31:51;;;;;;;11.27;7.32;;;32.30;99.90;;;;;;5064227;28;20276;-77
2023/07/30 09:34:19;;;;;;;8.88;7.38;;;32.70;99.90;;;;;;5076804;28;20139;-76
2023/07/30 09:36:49;;;;;;;11.18;7.57;;;33.10;99.90;;;;;;5082010;28;20041;-79
2023/07/30 09:39:18;;;;;;;10.07;7.43;;;33.40;99.90;;;;;;5062839;28;20041;-76
2023/07/30 09:41:46;;;;;;;11.02;8.38;;;33.40;99.90;;;;;;5083672;28;20108;-76
2023/07/30 09:44:16;;;;;;;13.82;8.43;;;33.40;99.90;;;;;;5086116;28;20110;-74
2023/07/30 09:46:44;;;;;;;12.65;8.90;;;33.30;99.90;;;;;;5081190;28;20104;-75
2023/07/30 09:49:14;;;;;;;13.30;10.07;;;33.30;99.90;;;;;;5089777;28;20059;-77
2023/07/30 09:51:42;;;;;;;11.35;9.73;;;33.60;99.90;;;;;;5090725;28;20064;-75
2023/07/30 09:54:22;;;;;;;10.45;9.35;;;34.00;99.90;;;;;;5083841;28;20052;-78
2023/07/30 09:56:49;;;;;;;11.45;9.57;;;34.50;99.90;;;;;;5076603;28;20055;-77
2023/07/30 09:59:21;;;;;;;10.38;8.98;;;34.50;99.90;;;;;;5072511;28;20044;-77
2023/07/30 10:01:53;;;;;;;13.98;11.32;;;34.30;99.90;;;;;;5068165;28;20040;-77
2023/07/30 10:04:21;;;;;;;12.13;9.70;;;34.30;99.90;;;;;;5070184;28;20528;-80
2023/07/30 10:06:53;;;;;;;12.95;10.63;;;34.30;99.90;;;;;;5062998;28;20041;-77
2023/07/30 10:09:26;;;;;;;14.52;10.40;;;34.40;99.90;;;;;;5061561;28;20049;-77
2023/07/30 10:11:55;;;;;;;13.75;9.55;;;34.60;99.90;;;;;;5062476;28;20041;-78
2023/07/30 10:14:25;;;;;;;11.20;9.23;;;34.80;99.90;;;;;;5060648;28;20044;-77
2023/07/30 10:16:54;;;;;;;13.10;9.90;;;35.00;99.90;;;;;;5038875;28;20051;-78
2023/07/30 10:19:25;;;;;;;11.73;10.52;;;35.10;99.90;;;;;;5069094;28;20048;-78
2023/07/30 10:21:59;;;;;;;10.93;9.70;;;35.10;99.90;;;;;;5041369;28;20048;-78
2023/07/30 10:24:31;;;;;;;12.27;9.77;;;34.90;99.90;;;;;;5068326;28;20051;-79
2023/07/30 10:27:06;;;;;;;12.90;10.20;;;34.70;99.90;;;;;;5071164;28;20105;-80
2023/07/30 10:29:38;;;;;;;14.15;9.63;;;34.40;99.90;;;;;;5070303;28;20626;-78
2023/07/30 10:32:05;;;;;;;15.05;10.98;;;34.10;99.90;;;;;;5070600;28;20056;-78
2023/07/30 10:34:46;;;;;;;19.73;17.65;;;33.90;99.90;;;;;;5052833;28;20044;-77
2023/07/30 10:37:19;;;;;;;13.77;12.18;;;33.60;99.90;;;;;;5068764;28;20048;-76
2023/07/30 10:39:49;;;;;;;12.68;9.38;;;33.50;99.90;;;;;;5070848;28;20045;-77
2023/07/30 10:42:18;;;;;;;13.52;9.85;;;33.30;99.90;;;;;;5070141;28;20505;-78
2023/07/30 10:44:46;;;;;;;14.55;11.55;;;33.40;99.90;;;;;;5068431;28;20501;-80
2023/07/30 10:47:13;;;;;;;16.63;11.88;;;33.40;99.90;;;;;;5069428;28;20132;-75
2023/07/30 10:49:43;;;;;;;17.98;14.07;;;33.40;99.90;;;;;;5071014;28;20844;-76
2023/07/30 10:52:11;;;;;;;12.98;9.88;;;33.60;99.90;;;;;;5070362;28;20040;-75
2023/07/30 10:54:38;;;;;;;15.32;12.00;;;33.70;99.90;;;;;;5072130;28;20174;-77
2023/07/30 10:57:08;;;;;;;12.02;9.57;;;33.60;99.90;;;;;;5069139;28;20041;-76
2023/07/30 10:59:37;;;;;;;13.32;10.13;;;33.50;99.90;;;;;;5053160;28;20045;-78
2023/07/30 11:02:05;;;;;;;16.77;10.05;;;33.50;99.90;;;;;;5048551;28;20350;-77
2023/07/30 11:04:35;;;;;;;13.38;11.80;;;33.40;99.90;;;;;;5068479;28;20127;-79
2023/07/30 11:07:06;;;;;;;17.40;14.95;;;33.20;99.90;;;;;;5068888;28;20063;-76
2023/07/30 11:09:33;;;;;;;15.07;10.45;;;32.90;99.90;;;;;;5051420;28;20051;-78
2023/07/30 11:12:11;;;;;;;16.17;12.63;;;32.50;99.90;;;;;;5050232;28;20052;-77
2023/07/30 11:14:41;;;;;;;13.60;10.00;;;32.20;99.90;;;;;;5070301;28;20067;-75
2023/07/30 11:17:09;;;;;;;12.02;8.90;;;32.00;99.90;;;;;;5072311;28;20037;-75
2023/07/30 11:19:43;;;;;;;11.52;9.68;;;31.50;99.90;;;;;;5069922;28;20128;-77
2023/07/30 11:22:11;;;;;;;10.77;9.68;;;31.10;99.90;;;;;;5081855;28;20049;-76
2023/07/30 11:24:38;;;;;;;18.63;12.73;;;31.00;99.90;;;;;;5071234;28;20056;-75
2023/07/30 11:27:07;;;;;;;13.32;11.10;;;30.90;99.90;;;;;;5068307;28;20056;-75
2023/07/30 11:29:35;;;;;;;16.63;12.02;;;30.70;99.90;;;;;;5069238;28;20143;-76
2023/07/30 11:32:03;;;;;;;12.60;10.98;;;30.70;99.90;;;;;;5068138;28;20041;-77
2023/07/30 11:34:31;;;;;;;12.77;10.35;;;30.70;99.90;;;;;;5069403;28;20047;-73
2023/07/30 11:36:59;;;;;;;15.63;11.90;;;30.90;99.90;;;;;;5069328;28;20045;-75
2023/07/30 11:39:28;;;;;;;15.55;11.60;;;31.00;99.90;;;;;;5066741;28;20041;-78
2023/07/30 11:41:55;;;;;;;18.33;15.85;;;31.30;99.90;;;;;;5066758;28;20051;-75
2023/07/30 11:44:32;;;;;;;22.10;18.33;;;31.50;99.90;;;;;;5067496;28;20056;-75
2023/07/30 11:47:03;;;;;;;15.90;11.73;;;31.50;99.90;;;;;;5069571;28;20044;-76
2023/07/30 11:49:31;;;;;;;12.80;10.73;;;31.70;99.90;;;;;;5068671;28;20041;-74
2023/07/30 11:52:06;;;;;;;16.10;10.57;;;32.10;99.90;;;;;;5067196;28;20068;-75
2023/07/30 11:54:33;;;;;;;;;;;32.30;99.90;;;;;;5068148;28;20067;-77
2023/07/30 11:57:01;;;;;;;13.05;10.50;;;32.60;99.90;;;;;;5068888;28;19924;-76
2023/07/30 11:59:28;;;;;;;12.40;9.50;;;32.80;99.90;;;;;;5069214;28;20040;-78
2023/07/30 12:01:56;;;;;;;10.10;7.90;;;32.90;99.90;;;;;;5070916;28;20062;-77
2023/07/30 12:04:24;;;;;;;10.68;9.00;;;32.70;99.90;;;;;;5069809;28;20036;-78
2023/07/30 12:06:53;;;;;;;12.57;8.50;;;32.20;99.90;;;;;;5068339;28;20404;-78
2023/07/30 12:09:22;;;;;;;11.10;8.50;;;31.90;99.90;;;;;;5066758;28;20041;-78
2023/07/30 12:11:51;;;;;;;11.95;8.68;;;31.70;99.90;;;;;;5068973;28;20049;-77
2023/07/30 12:14:19;;;;;;;13.30;9.63;;;31.70;99.90;;;;;;5073312;28;20120;-77
2023/07/30 12:16:47;;;;;;;11.70;9.68;;;31.50;99.90;;;;;;5080667;28;20102;-79
2023/07/30 12:19:15;;;;;;;11.85;8.98;;;31.40;99.90;;;;;;5048607;28;20044;-78
2023/07/30 12:21:43;;;;;;;11.90;7.90;;;31.30;99.90;;;;;;5066175;28;20063;-74
2023/07/30 12:24:11;;;;;;;12.98;7.88;;;31.20;99.90;;;;;;5065963;28;20047;-75
2023/07/30 12:26:38;;;;;;;11.18;8.20;;;30.80;99.90;;;;;;5066038;28;20049;-78
2023/07/30 12:29:07;;;;;;;12.00;8.05;;;30.50;99.90;;;;;;5066849;28;20052;-75
2023/07/30 12:31:34;;;;;;;9.93;7.72;;;30.20;99.90;;;;;;5066593;28;20078;-76
2023/07/30 12:34:01;;;;;;;11.45;7.53;;;29.90;99.90;;;;;;5065618;28;20037;-75
2023/07/30 12:36:29;;;;;;;9.68;6.78;;;29.70;99.90;;;;;;5066223;28;20040;-75
2023/07/30 12:38:57;;;;;;;10.55;8.05;;;29.60;99.90;;;;;;5065841;28;20586;-74
2023/07/30 12:41:26;;;;;;;9.68;7.38;;;29.60;99.90;;;;;;5066997;28;20044;-77
2023/07/30 12:43:54;;;;;;;8.30;7.03;;;29.50;99.90;;;;;;5065900;28;20070;-75